Time;durP1;ratioP1;P1;durP2;ratioP2;P2;SDS_P1;SDS_P2;PMS_P1;PMS_P2;Temp;Humidity;BMP_temperature;BMP_pressure;BME280_temperature;BME280_humidity;BME280_pressure;Samples;Min_cycle;Max_cycle;Signal;HPM_P1;HPM_P2
2021/07/13 00:00:11;;;;;;;8.67;7.70;;;22.80;99.90;;;;;;5051745;28;20684;-50
2021/07/13 00:02:38;;;;;;;7.67;6.90;;;22.70;99.90;;;;;;5052318;28;20662;-49
2021/07/13 00:05:06;;;;;;;7.17;6.57;;;22.70;99.90;;;;;;5052359;28;20759;-49
2021/07/13 00:07:34;;;;;;;6.93;6.33;;;22.70;99.90;;;;;;5052056;28;20694;-49
2021/07/13 00:10:01;;;;;;;6.67;6.07;;;22.70;99.90;;;;;;5052489;28;20638;-51
2021/07/13 00:12:29;;;;;;;7.03;5.97;;;22.70;99.90;;;;;;5052609;28;20650;-49
2021/07/13 00:14:57;;;;;;;8.70;6.00;;;22.70;99.90;;;;;;5052588;28;20956;-49
2021/07/13 00:17:24;;;;;;;7.00;6.30;;;22.70;99.90;;;;;;5052258;28;21236;-49
2021/07/13 00:19:51;;;;;;;8.87;6.30;;;22.60;99.90;;;;;;5051963;28;20715;-50
2021/07/13 00:22:18;;;;;;;6.50;5.90;;;22.60;99.90;;;;;;5051796;28;20655;-48
2021/07/13 00:24:45;;;;;;;7.47;5.80;;;22.60;99.90;;;;;;5051558;28;20633;-50
2021/07/13 00:27:13;;;;;;;9.07;6.97;;;22.50;99.90;;;;;;5050905;28;21108;-49
2021/07/13 00:29:41;;;;;;;6.93;6.33;;;22.50;99.90;;;;;;5050122;28;20645;-49
2021/07/13 00:32:08;;;;;;;7.50;6.80;;;22.50;99.90;;;;;;5051344;28;20650;-51
2021/07/13 00:34:36;;;;;;;8.00;7.27;;;22.40;99.90;;;;;;5051614;28;21221;-49
2021/07/13 00:37:03;;;;;;;8.00;7.27;;;22.30;99.90;;;;;;5051248;28;20680;-50
2021/07/13 00:39:30;;;;;;;7.13;6.53;;;22.30;99.90;;;;;;5050728;28;20665;-50
2021/07/13 00:41:57;;;;;;;10.30;7.70;;;22.30;99.90;;;;;;5050961;28;20676;-50
2021/07/13 00:44:25;;;;;;;7.20;6.47;;;22.20;99.90;;;;;;5051629;28;20912;-50
2021/07/13 00:46:53;;;;;;;8.60;7.90;;;22.30;99.90;;;;;;5050543;28;20698;-50
2021/07/13 00:49:21;;;;;;;8.33;7.57;;;22.20;99.90;;;;;;5051211;28;20706;-50
2021/07/13 00:51:48;;;;;;;8.00;7.13;;;22.20;99.90;;;;;;5050789;28;20653;-50
2021/07/13 00:54:15;;;;;;;12.27;7.43;;;22.20;99.90;;;;;;5051162;28;20665;-49
2021/07/13 00:56:43;;;;;;;9.90;7.37;;;22.20;99.90;;;;;;5050895;28;20682;-50
2021/07/13 00:59:10;;;;;;;8.20;7.50;;;22.20;99.90;;;;;;5050806;28;20630;-50
2021/07/13 01:01:38;;;;;;;8.47;7.23;;;22.20;99.90;;;;;;5051094;28;20654;-50
2021/07/13 01:04:06;;;;;;;10.53;9.50;;;22.20;99.90;;;;;;5050917;28;20665;-50
2021/07/13 01:06:43;;;;;;;9.87;9.13;;;22.20;99.90;;;;;;5050882;28;20698;-50
2021/07/13 01:09:12;;;;;;;12.13;10.23;;;22.10;99.90;;;;;;5049890;28;20697;-49
2021/07/13 01:11:46;;;;;;;11.00;9.90;;;22.10;99.90;;;;;;5032590;28;20642;-49
2021/07/13 01:14:18;;;;;;;11.07;10.07;;;22.00;99.90;;;;;;5050552;28;20625;-49
2021/07/13 01:16:47;;;;;;;11.93;10.93;;;22.00;99.90;;;;;;5050919;28;20760;-50
2021/07/13 01:19:37;;;;;;;13.23;11.93;;;21.90;99.90;;;;;;5049917;28;20654;-49
2021/07/13 01:22:06;;;;;;;17.30;13.50;;;21.70;99.90;;;;;;5012798;28;20681;-50
2021/07/13 01:24:58;;;;;;;17.33;15.33;;;21.70;99.90;;;;;;5040155;28;20645;-49
2021/07/13 01:27:37;;;;;;;13.17;12.10;;;21.70;99.90;;;;;;5047627;28;20728;-49
2021/07/13 01:30:06;;;;;;;14.97;13.13;;;21.70;99.90;;;;;;5050923;28;20707;-49
2021/07/13 01:32:33;;;;;;;15.43;13.90;;;21.70;99.90;;;;;;5050493;28;20626;-49
2021/07/13 01:35:03;;;;;;;15.23;13.97;;;21.70;99.90;;;;;;5050000;28;20771;-49
2021/07/13 01:37:30;;;;;;;16.13;14.73;;;21.60;99.90;;;;;;5050123;28;20728;-49
2021/07/13 01:39:57;;;;;;;16.00;14.20;;;21.70;99.90;;;;;;5049462;28;20668;-49
2021/07/13 01:42:25;;;;;;;15.90;14.50;;;21.70;99.90;;;;;;5051117;28;20629;-52
2021/07/13 01:44:52;;;;;;;15.93;14.57;;;21.70;99.90;;;;;;5034882;28;20630;-51
2021/07/13 01:47:21;;;;;;;16.00;14.40;;;21.70;99.90;;;;;;5052517;28;20697;-52
2021/07/13 01:49:48;;;;;;;17.03;15.33;;;21.70;99.90;;;;;;5051920;28;20618;-52
2021/07/13 01:52:15;;;;;;;17.97;14.80;;;21.70;99.90;;;;;;5052380;28;20661;-50
2021/07/13 01:54:43;;;;;;;19.03;16.57;;;21.80;99.90;;;;;;5050874;28;20680;-52
2021/07/13 01:57:10;;;;;;;16.80;15.10;;;21.80;99.90;;;;;;5051971;28;20650;-52
2021/07/13 01:59:39;;;;;;;15.97;14.50;;;21.80;99.90;;;;;;5053040;28;20622;-51
2021/07/13 02:02:06;;;;;;;15.33;13.93;;;21.80;99.90;;;;;;5052457;28;20733;-52
2021/07/13 02:04:35;;;;;;;17.30;15.80;;;21.80;99.90;;;;;;5052179;28;20636;-50
2021/07/13 02:07:04;;;;;;;17.57;15.93;;;21.80;99.90;;;;;;5050767;28;21285;-51
2021/07/13 02:09:31;;;;;;;17.13;15.63;;;21.80;99.90;;;;;;5050113;28;20668;-50
2021/07/13 02:11:58;;;;;;;18.00;16.40;;;21.80;99.90;;;;;;5049171;28;20677;-50
2021/07/13 02:14:26;;;;;;;16.33;14.93;;;21.80;99.90;;;;;;5048405;28;20697;-50
2021/07/13 02:16:53;;;;;;;16.20;14.70;;;21.80;99.90;;;;;;5048830;28;20677;-51
2021/07/13 02:19:22;;;;;;;15.97;14.63;;;21.80;99.90;;;;;;5049568;28;20668;-50
2021/07/13 02:21:50;;;;;;;16.13;14.47;;;21.80;99.90;;;;;;5049157;28;20662;-50
2021/07/13 02:24:18;;;;;;;14.47;13.07;;;21.80;99.90;;;;;;5049411;28;20683;-50
2021/07/13 02:26:47;;;;;;;14.47;13.17;;;21.80;99.90;;;;;;5048601;28;20701;-50
2021/07/13 02:29:18;;;;;;;14.97;13.67;;;21.70;99.90;;;;;;5049354;28;21214;-50
2021/07/13 02:31:46;;;;;;;14.70;13.40;;;21.70;99.90;;;;;;5049294;28;20665;-50
2021/07/13 02:34:14;;;;;;;14.30;13.20;;;21.80;99.90;;;;;;5049196;28;20650;-50
2021/07/13 02:36:45;;;;;;;15.70;14.30;;;21.70;99.90;;;;;;5049264;28;20693;-50
2021/07/13 02:39:14;;;;;;;16.17;14.67;;;21.70;99.90;;;;;;5049529;28;20669;-50
2021/07/13 02:41:41;;;;;;;16.50;15.00;;;21.70;99.90;;;;;;5049336;28;20653;-50
2021/07/13 02:44:09;;;;;;;14.20;12.90;;;21.70;99.90;;;;;;5048935;28;20723;-50
2021/07/13 02:46:40;;;;;;;16.63;15.20;;;21.70;99.90;;;;;;5030831;28;20645;-51
2021/07/13 02:49:08;;;;;;;13.70;12.50;;;21.70;99.90;;;;;;5049606;28;20666;-51
2021/07/13 02:51:35;;;;;;;13.73;12.63;;;21.70;99.90;;;;;;5050331;28;21163;-51
2021/07/13 02:54:02;;;;;;;15.03;13.73;;;21.70;99.90;;;;;;5053110;28;20630;-51
2021/07/13 02:56:31;;;;;;;15.40;13.93;;;21.70;99.90;;;;;;5053992;28;20685;-51
2021/07/13 02:58:58;;;;;;;16.20;14.77;;;21.70;99.90;;;;;;5035435;28;20623;-52
2021/07/13 03:01:26;;;;;;;15.63;14.00;;;21.70;99.90;;;;;;5033785;28;20670;-51
2021/07/13 03:03:53;;;;;;;15.03;13.63;;;21.60;99.90;;;;;;5038078;28;20680;-51
2021/07/13 03:06:20;;;;;;;15.03;13.80;;;21.60;99.90;;;;;;5052927;28;20658;-51
2021/07/13 03:08:47;;;;;;;15.37;14.07;;;21.50;99.90;;;;;;5052621;28;20682;-50
2021/07/13 03:11:14;;;;;;;14.20;12.80;;;21.50;99.90;;;;;;5052671;28;20665;-51
2021/07/13 03:13:43;;;;;;;13.77;12.47;;;21.40;99.90;;;;;;5034586;28;20679;-50
2021/07/13 03:16:10;;;;;;;14.97;12.30;;;21.40;99.90;;;;;;5052557;28;20670;-51
2021/07/13 03:18:37;;;;;;;12.83;11.53;;;21.40;99.90;;;;;;5052849;28;20707;-51
2021/07/13 03:21:05;;;;;;;10.47;9.70;;;21.40;99.90;;;;;;5051970;28;20662;-51
2021/07/13 03:23:34;;;;;;;12.67;11.67;;;21.40;99.90;;;;;;5052193;28;21170;-50
2021/07/13 03:26:01;;;;;;;12.77;11.77;;;21.40;99.90;;;;;;5052589;28;20654;-51
2021/07/13 03:28:28;;;;;;;13.33;12.10;;;21.40;99.90;;;;;;5053056;28;20700;-50
2021/07/13 03:30:56;;;;;;;14.00;12.80;;;21.40;99.90;;;;;;5052100;28;20659;-51
2021/07/13 03:33:24;;;;;;;14.13;13.03;;;21.30;99.90;;;;;;5053416;28;21019;-50
2021/07/13 03:35:51;;;;;;;14.83;13.60;;;21.30;99.90;;;;;;5052909;28;20665;-50
2021/07/13 03:38:18;;;;;;;17.50;15.53;;;21.30;99.90;;;;;;5052633;28;20652;-50
2021/07/13 03:40:46;;;;;;;17.17;15.57;;;21.30;99.90;;;;;;5052167;28;21207;-50
2021/07/13 03:43:13;;;;;;;14.80;13.50;;;21.30;99.90;;;;;;5052082;28;20679;-51
2021/07/13 03:45:41;;;;;;;15.20;13.90;;;21.40;99.90;;;;;;5051871;28;20654;-50
2021/07/13 03:48:11;;;;;;;13.63;12.33;;;21.30;99.90;;;;;;5050761;28;20718;-51
2021/07/13 03:50:38;;;;;;;16.90;15.30;;;21.20;99.90;;;;;;5052083;28;20657;-50
2021/07/13 03:53:05;;;;;;;15.77;14.47;;;21.20;99.90;;;;;;5051654;28;20657;-50
2021/07/13 03:55:32;;;;;;;16.83;15.43;;;21.30;99.90;;;;;;5051682;28;21009;-49
2021/07/13 03:58:00;;;;;;;16.47;15.13;;;21.30;99.90;;;;;;5052562;28;20693;-50
2021/07/13 04:00:28;;;;;;;15.10;13.80;;;21.30;99.90;;;;;;5051356;28;20664;-50
2021/07/13 04:02:55;;;;;;;14.90;13.47;;;21.30;99.90;;;;;;5052713;28;20662;-50
2021/07/13 04:05:23;;;;;;;12.63;11.50;;;21.30;99.90;;;;;;5051209;28;20650;-50
2021/07/13 04:07:51;;;;;;;12.80;9.73;;;21.40;99.90;;;;;;5051968;28;20694;-51
2021/07/13 04:10:18;;;;;;;12.73;11.60;;;21.40;99.90;;;;;;5052326;28;21035;-51
2021/07/13 04:12:45;;;;;;;11.03;10.10;;;21.40;99.90;;;;;;5052418;28;20658;-50
2021/07/13 04:15:13;;;;;;;12.53;11.43;;;21.40;99.90;;;;;;5051000;28;20665;-51
2021/07/13 04:17:40;;;;;;;13.07;11.87;;;21.40;99.90;;;;;;5051658;28;20807;-50
2021/07/13 04:20:09;;;;;;;12.23;11.27;;;21.40;99.90;;;;;;5051264;28;20654;-51
2021/07/13 04:22:37;;;;;;;10.97;10.13;;;21.40;99.90;;;;;;5052180;28;20653;-51
2021/07/13 04:25:06;;;;;;;12.20;11.23;;;21.40;99.90;;;;;;5052117;28;21014;-51
2021/07/13 04:27:33;;;;;;;13.50;12.30;;;21.40;99.90;;;;;;5050755;28;20669;-50
2021/07/13 04:30:01;;;;;;;14.20;12.87;;;21.40;99.90;;;;;;5051470;28;20653;-51
2021/07/13 04:32:28;;;;;;;12.10;11.10;;;21.40;99.90;;;;;;5051231;28;20658;-49
2021/07/13 04:34:56;;;;;;;14.03;12.83;;;21.40;99.90;;;;;;5051461;28;20979;-51
2021/07/13 04:37:24;;;;;;;14.00;12.80;;;21.40;99.90;;;;;;5032294;28;20654;-51
2021/07/13 04:39:53;;;;;;;14.47;13.37;;;21.40;99.90;;;;;;5051565;28;21159;-51
2021/07/13 04:42:20;;;;;;;14.90;13.50;;;21.40;99.90;;;;;;5051002;28;20665;-50
2021/07/13 04:44:47;;;;;;;13.27;11.97;;;21.40;99.90;;;;;;5031492;28;20638;-51
2021/07/13 04:47:15;;;;;;;13.90;12.80;;;21.40;99.90;;;;;;5048466;28;20693;-50
2021/07/13 04:49:42;;;;;;;14.70;13.40;;;21.40;99.90;;;;;;5050801;28;20686;-50
2021/07/13 04:52:09;;;;;;;14.53;13.40;;;21.40;99.90;;;;;;5050814;28;21155;-51
2021/07/13 04:54:36;;;;;;;15.10;13.93;;;21.40;99.90;;;;;;5050720;28;20653;-50
2021/07/13 04:57:05;;;;;;;16.43;15.00;;;21.40;99.90;;;;;;5050685;28;20682;-51
2021/07/13 04:59:32;;;;;;;15.00;13.80;;;21.40;99.90;;;;;;5050638;28;20629;-51
2021/07/13 05:01:59;;;;;;;15.27;13.97;;;21.40;99.90;;;;;;5050586;28;20664;-51
2021/07/13 05:04:26;;;;;;;16.50;15.13;;;21.40;99.90;;;;;;5051328;28;20668;-50
2021/07/13 05:06:53;;;;;;;14.77;13.57;;;21.40;99.90;;;;;;5050546;28;21183;-50
2021/07/13 05:09:21;;;;;;;16.37;14.97;;;21.40;99.90;;;;;;5050582;28;20697;-50
2021/07/13 05:11:48;;;;;;;15.70;14.30;;;21.40;99.90;;;;;;5050326;28;20748;-50
2021/07/13 05:14:16;;;;;;;14.70;13.40;;;21.50;99.90;;;;;;5048681;28;20634;-50
2021/07/13 05:16:44;;;;;;;14.60;13.23;;;21.50;99.90;;;;;;5049462;28;20958;-51
2021/07/13 05:19:13;;;;;;;13.90;12.53;;;21.40;99.90;;;;;;5050043;28;20662;-50
2021/07/13 05:21:43;;;;;;;15.70;14.40;;;21.40;99.90;;;;;;5050821;28;20653;-51
2021/07/13 05:24:11;;;;;;;15.20;13.87;;;21.40;99.90;;;;;;5054145;28;21269;-50
2021/07/13 05:26:38;;;;;;;14.17;12.77;;;21.40;99.90;;;;;;5049819;28;20701;-49
2021/07/13 05:29:06;;;;;;;15.23;13.70;;;21.40;99.90;;;;;;5049664;28;20712;-49
2021/07/13 05:31:35;;;;;;;14.17;12.77;;;21.40;99.90;;;;;;5050773;28;20638;-51
2021/07/13 05:34:02;;;;;;;15.70;14.20;;;21.40;99.90;;;;;;5051271;28;20635;-52
2021/07/13 05:36:29;;;;;;;16.10;14.67;;;21.40;99.90;;;;;;5053371;28;20654;-51
2021/07/13 05:38:56;;;;;;;12.20;11.13;;;21.40;99.90;;;;;;5052541;28;20668;-52
2021/07/13 05:41:24;;;;;;;14.93;13.73;;;21.40;99.90;;;;;;5052398;28;20648;-51
2021/07/13 05:43:51;;;;;;;15.37;13.10;;;21.40;99.90;;;;;;5052087;28;20637;-52
2021/07/13 05:46:18;;;;;;;16.07;14.77;;;21.40;99.90;;;;;;5035053;28;20699;-52
2021/07/13 05:48:47;;;;;;;13.37;12.20;;;21.40;99.90;;;;;;5052453;28;21360;-51
2021/07/13 05:51:14;;;;;;;16.13;14.37;;;21.40;99.90;;;;;;5052503;28;20634;-52
2021/07/13 05:53:41;;;;;;;12.97;11.90;;;21.40;99.90;;;;;;5051936;28;20621;-51
2021/07/13 05:56:10;;;;;;;15.03;13.73;;;21.40;99.90;;;;;;5052136;28;20626;-52
2021/07/13 05:58:37;;;;;;;13.67;12.57;;;21.40;99.90;;;;;;5052774;28;20626;-53
2021/07/13 06:01:04;;;;;;;15.20;14.00;;;21.30;99.90;;;;;;5052264;28;21269;-52
2021/07/13 06:03:31;;;;;;;15.63;14.20;;;21.40;99.90;;;;;;5053012;28;20626;-52
2021/07/13 06:06:00;;;;;;;14.10;13.07;;;21.40;99.90;;;;;;5052702;28;20976;-53
2021/07/13 06:08:27;;;;;;;13.90;12.70;;;21.40;99.90;;;;;;5052918;28;20690;-53
2021/07/13 06:10:54;;;;;;;13.27;12.07;;;21.40;99.90;;;;;;5052531;28;20637;-51
2021/07/13 06:13:22;;;;;;;15.37;13.87;;;21.40;99.90;;;;;;5052703;28;21105;-53
2021/07/13 06:15:49;;;;;;;14.20;13.00;;;21.40;99.90;;;;;;5051711;28;20622;-53
2021/07/13 06:18:17;;;;;;;15.47;13.97;;;21.40;99.90;;;;;;5050371;28;20863;-50
2021/07/13 06:20:44;;;;;;;16.77;15.37;;;21.50;99.90;;;;;;5049297;28;20645;-49
2021/07/13 06:23:13;;;;;;;15.63;14.33;;;21.50;99.90;;;;;;5049150;28;21198;-50
2021/07/13 06:25:42;;;;;;;15.90;14.50;;;21.50;99.90;;;;;;5048263;28;20761;-50
2021/07/13 06:28:09;;;;;;;15.10;13.70;;;21.50;99.90;;;;;;5049661;28;20685;-50
2021/07/13 06:30:37;;;;;;;14.67;13.50;;;21.50;99.90;;;;;;5047802;28;20682;-50
2021/07/13 06:33:04;;;;;;;16.57;14.97;;;21.50;99.90;;;;;;5049657;28;20662;-50
2021/07/13 06:35:31;;;;;;;14.00;12.80;;;21.40;99.90;;;;;;5047801;28;21268;-50
2021/07/13 06:37:59;;;;;;;16.03;14.63;;;21.40;99.90;;;;;;5049246;28;20685;-50
2021/07/13 06:40:28;;;;;;;13.40;12.40;;;21.40;99.90;;;;;;5044009;28;20700;-49
2021/07/13 06:42:55;;;;;;;12.63;11.53;;;21.40;99.90;;;;;;5043640;28;20650;-50
2021/07/13 06:45:22;;;;;;;13.90;12.80;;;21.50;99.90;;;;;;5043544;28;20692;-51
2021/07/13 06:47:54;;;;;;;14.60;13.40;;;21.50;99.90;;;;;;5030673;28;20659;-50
2021/07/13 06:50:23;;;;;;;15.10;13.80;;;21.50;99.90;;;;;;5047939;28;21345;-50
2021/07/13 06:52:50;;;;;;;14.43;13.23;;;21.60;99.90;;;;;;5048698;28;20273;-50
2021/07/13 06:55:17;;;;;;;12.57;11.63;;;21.60;99.90;;;;;;5048195;28;20630;-49
2021/07/13 06:57:46;;;;;;;16.67;14.97;;;21.60;99.90;;;;;;5048346;28;20799;-52
2021/07/13 07:00:14;;;;;;;15.50;13.97;;;21.60;99.90;;;;;;5048050;28;20639;-50
2021/07/13 07:02:41;;;;;;;14.93;13.63;;;21.70;99.90;;;;;;5048838;28;20662;-49
2021/07/13 07:05:10;;;;;;;16.63;15.23;;;21.60;99.90;;;;;;5048210;28;20653;-49
2021/07/13 07:07:44;;;;;;;17.00;15.50;;;21.60;99.90;;;;;;5048325;28;20690;-51
2021/07/13 07:10:12;;;;;;;15.87;14.50;;;21.60;99.90;;;;;;5048142;28;21034;-51
2021/07/13 07:12:39;;;;;;;15.40;14.10;;;21.70;99.90;;;;;;5048196;28;20665;-50
2021/07/13 07:15:08;;;;;;;11.70;10.73;;;21.70;99.90;;;;;;5048563;28;20658;-51
2021/07/13 07:17:43;;;;;;;14.70;13.30;;;21.70;99.90;;;;;;5047694;28;21084;-50
2021/07/13 07:20:11;;;;;;;16.90;15.60;;;21.70;99.90;;;;;;5048153;28;20718;-49
2021/07/13 07:22:38;;;;;;;15.33;14.13;;;21.70;99.90;;;;;;5047752;28;21158;-50
2021/07/13 07:25:07;;;;;;;18.37;16.80;;;21.70;99.90;;;;;;5048215;28;20679;-52
2021/07/13 07:27:34;;;;;;;16.40;14.77;;;21.70;99.90;;;;;;5048130;28;20661;-49
2021/07/13 07:30:03;;;;;;;17.57;16.17;;;21.70;99.90;;;;;;5048441;28;20681;-51
2021/07/13 07:32:31;;;;;;;15.40;14.00;;;21.70;99.90;;;;;;5027404;28;20657;-51
2021/07/13 07:34:59;;;;;;;15.20;14.00;;;21.70;99.90;;;;;;5028902;28;21007;-51
2021/07/13 07:37:26;;;;;;;15.80;14.60;;;21.60;99.90;;;;;;5029430;28;20686;-51
2021/07/13 07:39:53;;;;;;;14.20;13.10;;;21.70;99.90;;;;;;5032339;28;20615;-51
2021/07/13 07:42:20;;;;;;;14.93;13.70;;;21.70;99.90;;;;;;5032590;28;20650;-51
2021/07/13 07:44:48;;;;;;;14.57;13.27;;;21.70;99.90;;;;;;5032330;28;20650;-52
2021/07/13 07:47:15;;;;;;;14.20;12.90;;;21.70;99.90;;;;;;5032529;28;20686;-51
2021/07/13 07:49:43;;;;;;;11.73;10.90;;;21.70;99.90;;;;;;5051020;28;20720;-50
2021/07/13 07:52:11;;;;;;;13.90;12.70;;;21.80;99.90;;;;;;5051701;28;20666;-50
2021/07/13 07:54:38;;;;;;;13.43;12.20;;;21.80;99.90;;;;;;5051485;28;20653;-50
2021/07/13 07:57:05;;;;;;;12.50;11.60;;;21.80;99.90;;;;;;5051611;28;20701;-49
2021/07/13 07:59:32;;;;;;;13.90;12.13;;;21.90;99.90;;;;;;5051336;28;20665;-51
2021/07/13 08:02:00;;;;;;;12.83;11.83;;;21.80;99.90;;;;;;5051775;28;21001;-51
2021/07/13 08:04:27;;;;;;;13.07;11.87;;;21.80;99.90;;;;;;5051036;28;20642;-51
2021/07/13 08:06:55;;;;;;;12.83;11.87;;;21.70;99.90;;;;;;5051040;28;20692;-51
2021/07/13 08:09:23;;;;;;;13.23;11.80;;;21.70;99.90;;;;;;5051216;28;20756;-51
2021/07/13 08:11:50;;;;;;;13.40;11.30;;;21.80;99.90;;;;;;5051115;28;20658;-51
2021/07/13 08:14:17;;;;;;;12.97;11.87;;;21.80;99.90;;;;;;5051361;28;20707;-51
2021/07/13 08:16:45;;;;;;;11.30;10.30;;;21.80;99.90;;;;;;5050734;28;21191;-51
2021/07/13 08:19:12;;;;;;;12.27;11.23;;;21.80;99.90;;;;;;5049589;28;20699;-51
2021/07/13 08:21:39;;;;;;;10.60;9.80;;;21.80;99.90;;;;;;5050459;28;20664;-53
2021/07/13 08:24:10;;;;;;;9.63;8.90;;;21.70;99.90;;;;;;5051067;28;21047;-48
2021/07/13 08:26:37;;;;;;;9.00;8.33;;;21.70;99.90;;;;;;5050606;28;21207;-48
2021/07/13 08:29:05;;;;;;;10.00;9.20;;;21.70;99.90;;;;;;5052211;28;20634;-48
2021/07/13 08:31:32;;;;;;;10.27;9.47;;;21.70;99.90;;;;;;5051638;28;20720;-49
2021/07/13 08:33:59;;;;;;;10.17;9.37;;;21.70;99.90;;;;;;5051938;28;20625;-49
2021/07/13 08:36:26;;;;;;;10.33;9.60;;;21.70;99.90;;;;;;5051098;28;20686;-49
2021/07/13 08:38:53;;;;;;;10.03;9.20;;;21.70;99.90;;;;;;5051734;28;21042;-49
2021/07/13 08:41:22;;;;;;;11.93;10.37;;;21.70;99.90;;;;;;5051232;28;20654;-49
2021/07/13 08:43:49;;;;;;;11.70;10.57;;;21.70;99.90;;;;;;5051620;28;20638;-48
2021/07/13 08:46:17;;;;;;;12.00;10.90;;;21.80;99.90;;;;;;5051343;28;20764;-50
2021/07/13 08:48:44;;;;;;;10.65;9.85;;;21.70;99.90;;;;;;5047331;28;21088;-52
2021/07/13 08:51:11;;;;;;;20.87;19.00;;;21.70;99.90;;;;;;5050501;28;20524;-52
2021/07/13 08:53:39;;;;;;;9.70;8.70;;;21.70;99.90;;;;;;5048642;28;20654;-52
2021/07/13 08:56:06;;;;;;;9.10;8.30;;;21.70;99.90;;;;;;5051370;28;20626;-52
2021/07/13 08:58:35;;;;;;;8.87;7.97;;;21.70;99.90;;;;;;5051142;28;20626;-52
2021/07/13 09:01:02;;;;;;;7.90;7.30;;;21.70;99.90;;;;;;5051544;28;20618;-52
2021/07/13 09:03:32;;;;;;;8.00;7.30;;;21.70;99.90;;;;;;5051046;28;20673;-52
2021/07/13 09:06:00;;;;;;;7.53;6.93;;;21.70;99.90;;;;;;5050102;28;21166;-51
2021/07/13 09:08:28;;;;;;;8.47;7.87;;;21.70;99.90;;;;;;5050897;28;20626;-52
2021/07/13 09:11:06;;;;;;;10.23;9.33;;;21.70;99.90;;;;;;5050948;28;20694;-52
2021/07/13 09:13:36;;;;;;;8.43;7.73;;;21.70;99.90;;;;;;5050453;28;20622;-52
2021/07/13 09:16:04;;;;;;;10.20;8.90;;;21.70;99.90;;;;;;5050133;28;21159;-52
2021/07/13 09:18:32;;;;;;;9.20;8.40;;;21.80;99.90;;;;;;5050429;28;20765;-53
2021/07/13 09:21:13;;;;;;;9.23;8.40;;;21.80;99.90;;;;;;5050338;28;20669;-52
2021/07/13 09:23:59;;;;;;;10.00;9.00;;;21.80;99.90;;;;;;5049837;28;21182;-53
2021/07/13 09:26:39;;;;;;;8.40;7.43;;;21.80;99.90;;;;;;5049530;28;20701;-52
2021/07/13 09:29:08;;;;;;;13.60;7.97;;;21.80;99.90;;;;;;5050619;28;20687;-53
2021/07/13 09:31:35;;;;;;;8.97;8.27;;;21.80;99.90;;;;;;5049904;28;20674;-51
2021/07/13 09:34:02;;;;;;;10.70;9.70;;;21.80;99.90;;;;;;5050015;28;20622;-52
2021/07/13 09:36:30;;;;;;;10.53;9.53;;;21.80;99.90;;;;;;5050457;28;20658;-52
2021/07/13 09:38:57;;;;;;;9.10;8.17;;;21.80;99.90;;;;;;5049726;28;20626;-52
2021/07/13 09:41:25;;;;;;;8.67;7.97;;;21.80;99.90;;;;;;5049603;28;20630;-54
2021/07/13 09:43:53;;;;;;;9.00;8.20;;;21.70;99.90;;;;;;5050201;28;20661;-53
2021/07/13 09:46:45;;;;;;;9.40;8.50;;;21.80;99.90;;;;;;5049689;28;20689;-54
2021/07/13 09:49:17;;;;;;;9.87;8.70;;;21.80;99.90;;;;;;5049623;28;21227;-53
2021/07/13 09:51:46;;;;;;;7.93;7.33;;;21.80;99.90;;;;;;5048704;28;20694;-53
2021/07/13 09:54:33;;;;;;;7.87;7.27;;;21.70;99.90;;;;;;5049558;28;21172;-52
2021/07/13 09:57:00;;;;;;;8.93;8.13;;;21.70;99.90;;;;;;5049575;28;20650;-53
2021/07/13 09:59:28;;;;;;;10.10;9.10;;;21.70;99.90;;;;;;5049851;28;20653;-53
2021/07/13 10:01:56;;;;;;;8.93;8.23;;;21.80;99.90;;;;;;5049014;28;20714;-54
2021/07/13 10:04:23;;;;;;;9.67;8.73;;;21.70;99.90;;;;;;5046776;28;20713;-55
2021/07/13 10:06:52;;;;;;;9.97;9.00;;;21.80;99.90;;;;;;5038711;28;20686;-55
2021/07/13 10:09:19;;;;;;;10.70;9.90;;;21.80;99.90;;;;;;5048943;28;21166;-56
2021/07/13 10:11:47;;;;;;;10.07;9.17;;;21.80;99.90;;;;;;5048218;28;20693;-55
2021/07/13 10:14:14;;;;;;;10.37;9.47;;;21.80;99.90;;;;;;5048744;28;21125;-55
2021/07/13 10:16:41;;;;;;;10.47;9.57;;;21.80;99.90;;;;;;5048013;28;20658;-56
2021/07/13 10:19:10;;;;;;;8.90;8.20;;;21.90;99.90;;;;;;5048357;28;20677;-55
2021/07/13 10:21:38;;;;;;;9.30;8.60;;;21.90;99.90;;;;;;5048224;28;20645;-55
2021/07/13 10:24:06;;;;;;;7.77;7.17;;;21.90;99.90;;;;;;5047475;28;21050;-52
2021/07/13 10:26:43;;;;;;;10.00;7.70;;;21.90;99.90;;;;;;5047931;28;20694;-51
2021/07/13 10:29:39;;;;;;;9.00;7.50;;;22.00;99.90;;;;;;5048730;28;21131;-53
2021/07/13 10:32:07;;;;;;;10.40;9.47;;;22.00;99.90;;;;;;5048717;28;21215;-52
2021/07/13 10:34:49;;;;;;;9.70;8.80;;;22.00;99.90;;;;;;5049365;28;20669;-51
2021/07/13 10:37:30;;;;;;;9.20;8.40;;;22.10;99.90;;;;;;5048531;28;20761;-51
2021/07/13 10:39:58;;;;;;;9.20;8.30;;;22.10;99.90;;;;;;5048639;28;20656;-51
2021/07/13 10:42:50;;;;;;;9.00;8.20;;;22.10;99.90;;;;;;5048578;28;21225;-51
2021/07/13 10:45:28;;;;;;;9.27;8.57;;;22.10;99.90;;;;;;5048939;28;21151;-52
2021/07/13 10:48:05;;;;;;;8.60;8.00;;;22.10;99.90;;;;;;5048539;28;20719;-51
2021/07/13 10:50:47;;;;;;;8.03;7.43;;;22.20;99.90;;;;;;5048861;28;20686;-51
2021/07/13 10:53:23;;;;;;;7.70;7.00;;;22.20;99.90;;;;;;5048638;28;20621;-51
2021/07/13 10:56:07;;;;;;;8.60;7.87;;;22.30;99.90;;;;;;5048549;28;20675;-53
2021/07/13 10:58:41;;;;;;;8.93;8.23;;;22.30;99.90;;;;;;5048640;28;21130;-49
2021/07/13 11:01:10;;;;;;;9.57;8.87;;;22.30;99.90;;;;;;5048737;28;20629;-51
2021/07/13 11:03:57;;;;;;;8.80;8.10;;;22.40;99.90;;;;;;5048045;28;20630;-51
2021/07/13 11:06:45;;;;;;;7.87;7.27;;;22.40;99.90;;;;;;5048645;28;20727;-50
2021/07/13 11:09:19;;;;;;;9.27;8.47;;;22.50;99.90;;;;;;5047872;28;20685;-51
2021/07/13 11:11:47;;;;;;;8.57;7.87;;;22.60;99.90;;;;;;5048178;28;20695;-52
2021/07/13 11:14:15;;;;;;;8.50;7.90;;;22.70;99.90;;;;;;5052040;28;21014;-51
2021/07/13 11:16:43;;;;;;;8.23;7.53;;;22.80;99.90;;;;;;5051221;28;20669;-52
2021/07/13 11:19:12;;;;;;;8.07;7.43;;;23.00;99.90;;;;;;5051068;28;20634;-52
2021/07/13 11:21:42;;;;;;;9.30;8.47;;;23.00;99.90;;;;;;5051983;28;20733;-52
2021/07/13 11:24:13;;;;;;;8.67;7.33;;;23.10;99.90;;;;;;5051728;28;21155;-54
2021/07/13 11:26:42;;;;;;;9.27;8.60;;;23.20;99.90;;;;;;5051810;28;21034;-52
2021/07/13 11:29:15;;;;;;;10.10;8.93;;;23.20;99.90;;;;;;5051911;28;20717;-54
2021/07/13 11:31:43;;;;;;;8.90;8.10;;;23.20;99.90;;;;;;5051722;28;20687;-54
2021/07/13 11:34:11;;;;;;;13.03;9.27;;;23.10;99.90;;;;;;5052269;28;20707;-53
2021/07/13 11:36:40;;;;;;;10.13;7.80;;;23.10;99.90;;;;;;5052147;28;20682;-52
2021/07/13 11:39:10;;;;;;;7.90;7.10;;;23.10;99.90;;;;;;5051695;28;20657;-52
2021/07/13 11:41:37;;;;;;;7.03;6.43;;;23.10;99.80;;;;;;5051535;28;20778;-52
2021/07/13 11:44:06;;;;;;;6.83;6.33;;;23.10;99.90;;;;;;5052798;28;20656;-52
2021/07/13 11:46:34;;;;;;;8.40;7.73;;;23.10;99.80;;;;;;5051601;28;20681;-52
2021/07/13 11:49:02;;;;;;;8.17;7.40;;;23.10;99.80;;;;;;5051600;28;20626;-53
2021/07/13 11:51:31;;;;;;;9.40;8.70;;;23.10;99.80;;;;;;5051307;28;21307;-54
2021/07/13 11:53:59;;;;;;;7.33;6.80;;;23.10;99.70;;;;;;5052078;28;21012;-53
2021/07/13 11:56:28;;;;;;;9.63;7.00;;;23.10;99.70;;;;;;5051271;28;20662;-53
2021/07/13 11:58:55;;;;;;;8.70;7.80;;;23.00;99.70;;;;;;5051269;28;20688;-53
2021/07/13 12:01:24;;;;;;;4.80;4.40;;;23.00;99.60;;;;;;5051399;28;20687;-52
2021/07/13 12:03:51;;;;;;;4.13;2.70;;;22.90;98.60;;;;;;5052011;28;21143;-55
2021/07/13 12:06:20;;;;;;;5.70;2.10;;;22.70;97.70;;;;;;5051498;28;20681;-51
2021/07/13 12:08:54;;;;;;;1.33;1.23;;;22.50;98.20;;;;;;5051633;28;20645;-55
2021/07/13 12:11:23;;;;;;;4.13;1.10;;;22.30;97.30;;;;;;5051008;28;20739;-53
2021/07/13 12:13:52;;;;;;;1.03;0.93;;;22.10;97.90;;;;;;5051549;28;20633;-52
2021/07/13 12:16:22;;;;;;;1.33;1.00;;;21.80;97.80;;;;;;5051597;28;21022;-53
2021/07/13 12:18:50;;;;;;;10.03;1.17;;;21.60;98.10;;;;;;5051538;28;21285;-53
2021/07/13 12:21:17;;;;;;;0.90;0.80;;;21.40;98.20;;;;;;5050890;28;20630;-53
2021/07/13 12:23:45;;;;;;;1.67;0.60;;;21.30;98.30;;;;;;5049623;28;21099;-54
2021/07/13 12:26:23;;;;;;;1.60;0.50;;;21.20;98.20;;;;;;5050787;28;20661;-55
2021/07/13 12:29:08;;;;;;;1.13;0.83;;;21.10;98.50;;;;;;5050794;28;20708;-55
2021/07/13 12:31:37;;;;;;;1.80;0.53;;;21.10;98.30;;;;;;5050811;28;20700;-54
2021/07/13 12:34:06;;;;;;;2.40;0.80;;;21.00;98.30;;;;;;5050769;28;20666;-55
2021/07/13 12:36:35;;;;;;;0.80;0.60;;;21.00;98.50;;;;;;5050776;28;21067;-55
2021/07/13 12:39:16;;;;;;;2.97;0.80;;;21.00;98.70;;;;;;5050766;28;20987;-53
2021/07/13 12:41:45;;;;;;;0.90;0.60;;;21.00;98.70;;;;;;5051113;28;21155;-55
2021/07/13 12:44:33;;;;;;;1.27;0.83;;;21.00;98.70;;;;;;5050907;28;21083;-55